createdAt,value
2017-10-09T00:02:15.868Z,8.43
2017-10-09T00:04:43.458Z,8.10
2017-10-09T00:07:11.009Z,7.17
2017-10-09T00:09:38.630Z,6.93
2017-10-09T00:12:06.377Z,7.00
2017-10-09T00:14:35.779Z,7.30
2017-10-09T00:17:04.896Z,7.80
2017-10-09T00:19:33.461Z,7.07
2017-10-09T00:22:01.077Z,7.40
2017-10-09T00:24:29.822Z,7.90
2017-10-09T00:26:58.749Z,7.70
2017-10-09T00:29:29.143Z,7.33
2017-10-09T00:31:57.593Z,6.80
2017-10-09T00:34:25.974Z,7.07
2017-10-09T00:36:53.938Z,7.00
2017-10-09T00:39:23.378Z,6.67
2017-10-09T00:41:51.375Z,6.50
2017-10-09T00:44:18.922Z,6.47
2017-10-09T00:46:46.954Z,6.47
2017-10-09T00:49:14.498Z,6.10
2017-10-09T00:51:42.462Z,6.10
2017-10-09T00:54:10.046Z,6.20
2017-10-09T00:56:37.601Z,6.60
2017-10-09T00:59:05.214Z,7.07
2017-10-09T01:01:32.753Z,6.20
2017-10-09T01:04:00.335Z,6.00
2017-10-09T01:06:27.928Z,5.80
2017-10-09T01:08:56.421Z,6.10
2017-10-09T01:11:24.633Z,5.30
2017-10-09T01:13:53.865Z,6.70
2017-10-09T01:16:21.488Z,6.40
2017-10-09T01:18:49.084Z,5.90
2017-10-09T01:21:17.461Z,6.17
2017-10-09T01:23:45.024Z,5.87
2017-10-09T01:26:12.595Z,5.70
2017-10-09T01:28:40.973Z,5.53
2017-10-09T01:31:08.923Z,5.30
2017-10-09T01:33:36.566Z,5.40
2017-10-09T01:36:07.026Z,4.80
2017-10-09T01:38:35.727Z,5.80
2017-10-09T01:41:03.358Z,4.90
2017-10-09T01:43:30.913Z,5.70
2017-10-09T01:45:58.501Z,5.63
2017-10-09T01:48:26.459Z,5.30
2017-10-09T01:50:55.158Z,5.30
2017-10-09T01:53:22.748Z,5.70
2017-10-09T01:55:51.073Z,6.03
2017-10-09T01:58:19.462Z,5.50
2017-10-09T02:00:47.025Z,5.03
2017-10-09T02:03:15.045Z,5.30
2017-10-09T02:05:42.621Z,6.27
2017-10-09T02:08:11.544Z,6.00
2017-10-09T02:10:39.126Z,5.80
2017-10-09T02:13:06.700Z,6.17
2017-10-09T02:15:35.229Z,5.87
2017-10-09T02:18:03.197Z,5.70
2017-10-09T02:20:30.902Z,6.03
2017-10-09T02:22:59.372Z,6.20
2017-10-09T02:25:27.327Z,6.80
2017-10-09T02:27:54.955Z,5.87
2017-10-09T02:30:22.522Z,5.60
2017-10-09T02:32:50.098Z,6.00
2017-10-09T02:35:17.650Z,5.77
2017-10-09T02:37:45.318Z,5.67
2017-10-09T02:40:14.007Z,6.00
2017-10-09T02:42:42.977Z,5.40
2017-10-09T02:45:10.619Z,5.50
2017-10-09T02:47:38.569Z,6.30
2017-10-09T03:07:18.473Z,6.03
2017-10-09T03:09:46.082Z,6.03
2017-10-09T03:12:13.638Z,5.97
2017-10-09T03:14:42.341Z,5.57
2017-10-09T03:17:09.933Z,5.97
2017-10-09T03:19:37.483Z,5.70
2017-10-09T03:22:05.486Z,6.07
2017-10-09T03:24:33.061Z,6.20
2017-10-09T03:27:06.410Z,6.40
2017-10-09T03:29:35.918Z,5.00
2017-10-09T03:32:03.506Z,6.40
2017-10-09T03:34:31.100Z,5.40
2017-10-09T03:36:58.678Z,6.37
2017-10-09T03:39:26.285Z,5.87
2017-10-09T03:41:53.842Z,5.30
2017-10-09T03:44:22.218Z,5.07
2017-10-09T03:46:49.781Z,4.63
2017-10-09T03:49:18.673Z,4.87
2017-10-09T03:51:46.274Z,5.47
2017-10-09T03:54:14.290Z,5.53
2017-10-09T03:56:42.229Z,5.30
2017-10-09T03:59:09.857Z,6.13
2017-10-09T04:01:37.841Z,5.43
2017-10-09T04:04:05.445Z,5.97
2017-10-09T04:06:33.000Z,5.60
2017-10-09T04:09:02.034Z,5.60
2017-10-09T04:11:30.719Z,5.80
2017-10-09T04:13:58.284Z,6.20
2017-10-09T04:16:25.873Z,5.87
2017-10-09T04:18:53.829Z,5.30
2017-10-09T04:21:22.181Z,5.33
2017-10-09T04:23:51.072Z,5.27
2017-10-09T04:26:20.031Z,5.83
2017-10-09T04:28:47.994Z,5.90
2017-10-09T04:31:15.557Z,5.70
2017-10-09T04:33:43.579Z,6.33
2017-10-09T04:36:11.168Z,6.87
2017-10-09T04:38:40.070Z,6.30
2017-10-09T04:41:08.749Z,6.83
2017-10-09T04:43:36.362Z,7.20
2017-10-09T04:46:04.691Z,6.80
2017-10-09T04:48:33.593Z,7.40
2017-10-09T04:51:02.614Z,7.37
2017-10-09T04:53:31.709Z,7.30
2017-10-09T04:55:59.298Z,7.90
2017-10-09T04:58:28.258Z,7.13
2017-10-09T05:00:56.275Z,7.77
2017-10-09T05:03:25.190Z,8.87
2017-10-09T05:05:52.732Z,9.50
2017-10-09T05:08:20.738Z,7.93
2017-10-09T05:10:49.653Z,7.73
2017-10-09T05:13:18.005Z,8.67
2017-10-09T05:15:45.562Z,8.33
2017-10-09T05:18:13.223Z,8.93
2017-10-09T05:20:42.032Z,8.30
2017-10-09T05:23:09.602Z,8.93
2017-10-09T05:25:37.187Z,8.47
2017-10-09T05:28:06.426Z,9.30
2017-10-09T05:30:34.930Z,9.40
2017-10-09T05:33:03.711Z,9.30
2017-10-09T05:35:31.797Z,8.40
2017-10-09T05:37:59.378Z,9.90
2017-10-09T05:40:26.982Z,9.47
2017-10-09T05:42:54.563Z,9.17
2017-10-09T05:45:22.160Z,9.57
2017-10-09T05:47:50.475Z,9.30
2017-10-09T05:50:19.436Z,8.90
2017-10-09T05:52:46.989Z,9.07
2017-10-09T05:55:14.586Z,9.50
2017-10-09T05:57:42.595Z,9.53
2017-10-09T06:00:10.193Z,9.70
2017-10-09T06:02:39.510Z,9.90
2017-10-09T06:05:08.195Z,9.47
2017-10-09T06:07:36.737Z,10.60
2017-10-09T06:10:05.974Z,10.00
2017-10-09T06:12:33.531Z,9.30
2017-10-09T06:15:01.521Z,10.77
2017-10-09T06:17:29.467Z,9.50
2017-10-09T06:19:58.560Z,9.20
2017-10-09T06:22:26.119Z,9.33
2017-10-09T06:24:54.497Z,10.10
2017-10-09T06:27:23.393Z,8.60
2017-10-09T06:29:50.945Z,8.80
2017-10-09T06:32:18.530Z,8.43
2017-10-09T06:34:46.676Z,9.00
2017-10-09T06:37:15.070Z,8.80
2017-10-09T06:39:42.712Z,9.50
2017-10-09T06:42:11.705Z,9.13
2017-10-09T06:44:40.662Z,9.43
2017-10-09T06:47:08.972Z,9.23
2017-10-09T06:49:36.568Z,10.03
2017-10-09T06:52:04.157Z,11.13
2017-10-09T06:54:32.773Z,11.10
2017-10-09T06:57:00.360Z,10.33
2017-10-09T06:59:28.024Z,10.23
2017-10-09T07:01:56.838Z,10.30
2017-10-09T07:04:24.470Z,9.60
2017-10-09T07:06:52.026Z,9.00
2017-10-09T07:09:21.566Z,8.73
2017-10-09T07:11:49.162Z,8.60
2017-10-09T07:14:16.743Z,8.30
2017-10-09T07:16:44.304Z,7.67
2017-10-09T07:19:12.678Z,8.13
2017-10-09T07:21:40.229Z,6.90
2017-10-09T07:24:08.614Z,8.40
2017-10-09T07:26:36.930Z,8.73
2017-10-09T07:29:04.562Z,9.00
2017-10-09T07:31:32.106Z,8.80
2017-10-09T07:34:00.053Z,10.17
2017-10-09T07:36:28.988Z,10.23
2017-10-09T07:38:56.630Z,10.03
2017-10-09T07:41:24.396Z,8.93
2017-10-09T07:43:53.460Z,9.40
2017-10-09T07:46:21.078Z,9.30
2017-10-09T07:48:48.679Z,9.17
2017-10-09T07:51:16.255Z,9.80
2017-10-09T07:53:46.685Z,9.57
2017-10-09T07:56:15.002Z,9.10
2017-10-09T07:58:43.967Z,8.77
2017-10-09T08:01:11.510Z,8.10
2017-10-09T08:03:40.274Z,8.10
2017-10-09T08:06:08.246Z,10.17
2017-10-09T08:08:36.577Z,8.90
2017-10-09T08:11:05.674Z,8.63
2017-10-09T08:13:33.225Z,7.27
2017-10-09T08:16:00.848Z,7.00
2017-10-09T08:18:28.798Z,7.50
2017-10-09T08:20:56.378Z,6.47
2017-10-09T08:23:25.276Z,6.97
2017-10-09T08:25:52.961Z,6.53
2017-10-09T08:28:21.653Z,6.33
2017-10-09T08:30:49.213Z,6.03
2017-10-09T08:33:17.935Z,6.70
2017-10-09T08:35:45.968Z,5.97
2017-10-09T08:38:13.564Z,5.47
2017-10-09T08:40:42.249Z,6.27
2017-10-09T08:43:09.929Z,6.00
2017-10-09T08:45:37.481Z,5.97
2017-10-09T08:48:06.213Z,5.20
2017-10-09T08:50:33.747Z,4.90
2017-10-09T08:53:02.463Z,5.50
2017-10-09T08:55:30.077Z,5.30
2017-10-09T08:57:59.289Z,5.80
2017-10-09T09:00:26.871Z,5.30
2017-10-09T09:02:54.518Z,5.30
2017-10-09T09:05:22.265Z,5.63
2017-10-09T09:07:50.371Z,5.20
2017-10-09T09:10:17.921Z,5.40
2017-10-09T09:12:45.523Z,4.40
2017-10-09T09:15:14.444Z,4.70
2017-10-09T09:17:41.992Z,5.30
2017-10-09T09:20:09.596Z,5.30
2017-10-09T09:22:38.725Z,5.50
2017-10-09T09:25:07.481Z,5.10
2017-10-09T09:27:35.048Z,6.00
2017-10-09T09:30:02.935Z,5.57
2017-10-09T09:32:30.886Z,5.83
2017-10-09T09:34:58.478Z,4.70
2017-10-09T09:37:27.209Z,5.27
2017-10-09T09:39:55.172Z,5.13
2017-10-09T09:42:22.813Z,5.77
2017-10-09T09:44:50.386Z,4.60
2017-10-09T09:47:18.010Z,4.57
2017-10-09T09:49:45.577Z,5.47
2017-10-09T09:52:13.149Z,5.37
2017-10-09T09:54:40.753Z,5.47
2017-10-09T09:57:09.267Z,5.50
2017-10-09T09:59:38.001Z,5.00
2017-10-09T10:02:05.557Z,4.90
2017-10-09T10:04:34.527Z,4.60
2017-10-09T10:07:02.083Z,5.10
2017-10-09T10:09:30.645Z,6.10
2017-10-09T10:11:58.224Z,6.37
2017-10-09T10:14:26.573Z,5.80
2017-10-09T10:16:54.546Z,5.77
2017-10-09T10:19:22.101Z,6.07
2017-10-09T10:21:51.076Z,5.67
2017-10-09T10:24:18.712Z,5.50
2017-10-09T10:26:46.434Z,4.73
2017-10-09T10:29:14.017Z,4.27
2017-10-09T10:31:41.600Z,3.50
2017-10-09T10:34:09.214Z,4.43
2017-10-09T10:36:37.525Z,4.70
2017-10-09T10:39:06.613Z,4.73
2017-10-09T10:41:35.061Z,4.63
2017-10-09T10:44:03.923Z,4.10
2017-10-09T10:46:31.472Z,4.33
2017-10-09T10:48:59.057Z,5.30
2017-10-09T10:51:26.715Z,6.00
2017-10-09T10:53:54.314Z,5.50
2017-10-09T10:56:22.642Z,6.07
2017-10-09T10:58:50.609Z,5.60
2017-10-09T11:01:19.541Z,4.80
2017-10-09T11:03:47.861Z,4.90
2017-10-09T11:06:15.437Z,5.30
2017-10-09T11:08:44.291Z,5.67
2017-10-09T11:11:11.881Z,4.57
2017-10-09T11:13:39.818Z,5.40
2017-10-09T11:16:07.826Z,5.37
2017-10-09T11:18:36.147Z,4.83
2017-10-09T11:21:05.210Z,5.00
2017-10-09T11:23:33.958Z,5.30
2017-10-09T11:26:02.876Z,5.13
2017-10-09T11:28:32.161Z,4.67
2017-10-09T11:31:01.039Z,5.00
2017-10-09T11:33:29.426Z,4.33
2017-10-09T11:35:57.397Z,4.60
2017-10-09T11:38:25.349Z,5.17
2017-10-09T11:40:52.967Z,4.43
2017-10-09T11:43:20.521Z,4.43
2017-10-09T11:45:48.945Z,4.70
2017-10-09T11:48:16.708Z,4.13
2017-10-09T11:50:44.289Z,4.33
2017-10-09T11:53:13.200Z,4.10
2017-10-09T11:55:41.191Z,4.70
2017-10-09T11:58:08.758Z,3.70
2017-10-09T12:00:36.371Z,3.73
2017-10-09T12:03:03.925Z,3.73
2017-10-09T12:05:31.489Z,3.97
2017-10-09T12:08:01.350Z,3.93
2017-10-09T12:10:32.645Z,3.67
2017-10-09T12:13:01.010Z,3.73
2017-10-09T12:15:29.987Z,3.70
2017-10-09T12:17:57.569Z,4.23
2017-10-09T12:20:25.125Z,3.80
2017-10-09T12:22:53.179Z,3.30
2017-10-09T12:25:20.733Z,3.47
2017-10-09T12:27:48.317Z,3.47
2017-10-09T12:30:16.998Z,4.00
2017-10-09T12:32:46.478Z,3.40
2017-10-09T12:35:14.044Z,3.50
2017-10-09T12:37:41.876Z,3.30
2017-10-09T12:40:09.474Z,3.37
2017-10-09T12:42:37.017Z,3.90
2017-10-09T12:45:04.708Z,3.77
2017-10-09T12:47:32.266Z,3.03
2017-10-09T12:50:00.271Z,2.77
2017-10-09T12:52:28.598Z,3.30
2017-10-09T12:54:56.200Z,3.60
2017-10-09T12:57:24.646Z,2.97
2017-10-09T12:59:52.995Z,2.63
2017-10-09T13:02:21.426Z,3.00
2017-10-09T13:04:49.398Z,2.33
2017-10-09T13:07:17.775Z,2.60
2017-10-09T13:09:46.096Z,2.50
2017-10-09T13:12:13.706Z,2.50
2017-10-09T13:14:41.461Z,2.50
2017-10-09T13:17:09.040Z,2.67
2017-10-09T13:19:36.902Z,2.87
2017-10-09T13:22:04.458Z,3.10
2017-10-09T13:24:34.004Z,3.43
2017-10-09T13:27:01.590Z,3.90
2017-10-09T13:29:29.192Z,3.10
2017-10-09T13:31:57.192Z,2.67
2017-10-09T13:34:25.503Z,1.90
2017-10-09T13:36:53.130Z,1.77
2017-10-09T13:39:20.686Z,2.20
2017-10-09T13:41:48.685Z,1.73
2017-10-09T13:44:17.031Z,1.70
2017-10-09T13:46:44.976Z,1.50
2017-10-09T13:49:12.574Z,1.57
2017-10-09T13:51:40.524Z,1.40
2017-10-09T13:54:08.104Z,1.30
2017-10-09T13:56:36.050Z,1.40
2017-10-09T13:59:03.673Z,1.70
2017-10-09T14:01:32.006Z,2.40
2017-10-09T14:04:00.365Z,1.70
2017-10-09T14:06:28.670Z,1.60
2017-10-09T14:08:57.173Z,1.40
2017-10-09T14:11:25.113Z,5.87
2017-10-09T14:13:54.242Z,2.63
2017-10-09T14:16:21.841Z,10.80
2017-10-09T14:18:50.587Z,4.73
2017-10-09T14:21:18.185Z,2.63
2017-10-09T14:23:45.744Z,1.73
2017-10-09T14:26:13.321Z,2.60
2017-10-09T14:28:41.720Z,3.07
2017-10-09T14:31:09.365Z,2.00
2017-10-09T14:41:00.740Z,1.30
2017-10-09T14:43:30.066Z,1.70
2017-10-09T14:45:58.702Z,1.10
2017-10-09T14:48:26.345Z,1.63
2017-10-09T14:50:53.945Z,1.40
2017-10-09T14:53:21.479Z,1.30
2017-10-09T14:55:50.220Z,1.23
2017-10-09T14:58:17.807Z,1.60
2017-10-09T15:00:46.034Z,1.20
2017-10-09T15:03:14.356Z,1.20
2017-10-09T15:05:42.338Z,1.80
2017-10-09T15:08:10.670Z,1.63
2017-10-09T15:10:39.387Z,1.50
2017-10-09T15:13:06.949Z,1.73
2017-10-09T15:15:34.526Z,1.67
2017-10-09T15:18:03.679Z,2.10
2017-10-09T15:20:33.241Z,1.90
2017-10-09T15:23:00.878Z,1.70
2017-10-09T15:25:29.980Z,1.60
2017-10-09T15:27:58.350Z,1.83
2017-10-09T15:30:26.322Z,2.20
2017-10-09T15:32:53.966Z,1.90
2017-10-09T15:35:22.050Z,1.90
2017-10-09T15:37:51.026Z,1.87
2017-10-09T15:40:19.409Z,1.50
2017-10-09T15:42:47.066Z,1.70
2017-10-09T15:45:15.013Z,2.10
2017-10-09T15:47:43.369Z,1.70
2017-10-09T15:50:12.334Z,2.13
2017-10-09T15:52:39.894Z,2.20
2017-10-09T15:55:08.873Z,1.90
2017-10-09T15:57:36.426Z,1.60
2017-10-09T16:00:05.554Z,1.90
2017-10-09T16:02:34.502Z,1.97
2017-10-09T16:05:02.115Z,2.20
2017-10-09T16:07:30.483Z,2.20
2017-10-09T16:09:58.053Z,3.00
2017-10-09T16:12:25.647Z,3.07
2017-10-09T16:14:53.621Z,2.17
2017-10-09T16:17:21.289Z,1.90
2017-10-09T16:19:48.847Z,5.20
2017-10-09T16:22:17.573Z,3.23
2017-10-09T16:24:46.327Z,2.00
2017-10-09T16:27:13.886Z,4.40
2017-10-09T16:29:42.655Z,2.67
2017-10-09T16:32:10.232Z,2.80
2017-10-09T16:34:39.016Z,2.97
2017-10-09T16:37:07.660Z,2.77
2017-10-09T16:39:35.219Z,2.07
2017-10-09T16:42:03.613Z,2.80
2017-10-09T16:44:31.177Z,2.40
2017-10-09T16:46:58.769Z,3.27
2017-10-09T16:49:27.704Z,2.50
2017-10-09T16:51:55.300Z,2.40
2017-10-09T16:54:22.875Z,3.07
2017-10-09T16:56:51.266Z,2.63
2017-10-09T16:59:19.614Z,4.30
2017-10-09T17:01:47.254Z,2.60
2017-10-09T17:04:16.062Z,3.20
2017-10-09T17:06:43.645Z,2.90
2017-10-09T17:09:12.428Z,3.50
2017-10-09T17:11:40.013Z,3.67
2017-10-09T17:14:08.794Z,2.90
2017-10-09T17:16:38.062Z,4.17
2017-10-09T17:19:05.655Z,4.50
2017-10-09T17:21:34.307Z,4.30
2017-10-09T17:24:01.950Z,4.27
2017-10-09T17:26:29.530Z,4.50
2017-10-09T17:28:57.074Z,4.20
2017-10-09T17:31:25.765Z,3.07
2017-10-09T17:33:53.623Z,2.77
2017-10-09T17:36:22.796Z,3.33
2017-10-09T17:38:50.354Z,4.20
2017-10-09T17:41:17.970Z,4.33
2017-10-09T17:43:46.658Z,4.33
2017-10-09T17:46:14.282Z,5.77
2017-10-09T17:48:41.835Z,5.57
2017-10-09T17:51:09.783Z,4.70
2017-10-09T17:53:37.362Z,5.03
2017-10-09T17:56:06.049Z,4.23
2017-10-09T17:58:33.646Z,2.90
2017-10-09T18:01:02.749Z,2.83
2017-10-09T18:03:30.342Z,3.00
2017-10-09T18:05:58.984Z,2.87
2017-10-09T18:08:30.987Z,2.53
2017-10-09T18:10:59.891Z,2.43
2017-10-09T18:13:28.872Z,2.90
2017-10-09T18:15:56.424Z,2.70
2017-10-09T18:18:25.126Z,2.60
2017-10-09T18:20:53.509Z,2.30
2017-10-09T18:23:21.078Z,3.00
2017-10-09T18:25:48.694Z,3.20
2017-10-09T18:28:16.264Z,3.40
2017-10-09T18:30:43.825Z,3.90
2017-10-09T18:33:12.406Z,3.40
2017-10-09T18:35:39.978Z,2.97
2017-10-09T18:38:08.925Z,3.00
2017-10-09T18:40:36.874Z,4.30
2017-10-09T18:43:05.520Z,3.90
2017-10-09T18:45:33.081Z,4.60
2017-10-09T18:48:00.650Z,4.43
2017-10-09T18:50:29.369Z,4.80
2017-10-09T18:52:57.025Z,4.20
2017-10-09T18:55:24.606Z,4.63
2017-10-09T18:57:53.513Z,4.77
2017-10-09T19:00:21.134Z,5.20
2017-10-09T19:02:48.700Z,4.20
2017-10-09T19:05:16.292Z,3.87
2017-10-09T19:07:44.650Z,3.63
2017-10-09T19:10:12.597Z,3.43
2017-10-09T19:12:40.219Z,3.40
2017-10-09T19:15:07.777Z,3.23
2017-10-09T19:17:35.413Z,3.30
2017-10-09T19:20:02.973Z,3.60
2017-10-09T19:22:30.529Z,3.80
2017-10-09T19:24:58.111Z,4.17
2017-10-09T19:27:25.678Z,4.80
2017-10-09T19:29:53.290Z,3.60
2017-10-09T19:32:21.684Z,3.80
2017-10-09T19:34:50.061Z,3.27
2017-10-09T19:37:17.638Z,2.80
2017-10-09T19:39:45.622Z,3.10
2017-10-09T19:42:13.171Z,3.20
2017-10-09T19:44:41.175Z,2.97
2017-10-09T19:47:08.775Z,3.30
2017-10-09T19:49:37.154Z,4.10
2017-10-09T19:52:04.718Z,4.90
2017-10-09T19:54:32.335Z,5.37
2017-10-09T19:57:00.698Z,4.67
2017-10-09T19:59:31.819Z,4.70
2017-10-09T20:02:00.369Z,5.60
2017-10-09T20:04:28.340Z,5.13
2017-10-09T20:06:55.935Z,4.73
2017-10-09T20:09:23.527Z,5.50
2017-10-09T20:11:52.037Z,5.17
2017-10-09T20:14:19.605Z,5.40
2017-10-09T20:16:47.194Z,3.90
2017-10-09T20:19:14.773Z,3.57
2017-10-09T20:21:42.371Z,3.77
2017-10-09T20:24:09.929Z,3.50
2017-10-09T20:26:38.920Z,3.87
2017-10-09T20:29:07.985Z,4.27
2017-10-09T20:31:36.216Z,4.10
2017-10-09T20:34:03.812Z,4.40
2017-10-09T20:36:32.859Z,4.20
2017-10-09T20:39:00.509Z,4.57
2017-10-09T20:41:29.578Z,5.10
2017-10-09T20:43:57.118Z,4.57
2017-10-09T20:46:24.731Z,4.00
2017-10-09T20:48:54.015Z,4.50
2017-10-09T20:51:21.634Z,4.37
2017-10-09T20:53:49.184Z,4.70
2017-10-09T20:56:16.801Z,6.70
2017-10-09T20:58:44.371Z,7.60
2017-10-09T21:01:13.134Z,7.63
2017-10-09T21:03:40.754Z,7.70
2017-10-09T21:06:09.453Z,6.73
2017-10-09T21:08:37.058Z,5.83
2017-10-09T21:11:07.106Z,7.30
2017-10-09T21:13:35.855Z,6.90
2017-10-09T21:16:03.401Z,8.20
2017-10-09T21:18:31.023Z,7.53
2017-10-09T21:20:58.578Z,6.60
2017-10-09T21:23:26.140Z,8.83
2017-10-09T21:25:53.751Z,8.83
2017-10-09T21:28:21.315Z,11.87
2017-10-09T21:30:48.910Z,13.17
2017-10-09T21:33:16.466Z,12.30
2017-10-09T21:35:44.854Z,12.07
2017-10-09T21:38:13.189Z,12.80
2017-10-09T21:40:40.778Z,13.37
2017-10-09T21:43:08.399Z,11.47
2017-10-09T21:45:35.962Z,8.70
2017-10-09T21:48:04.354Z,6.70
2017-10-09T21:50:32.305Z,6.90
2017-10-09T21:52:59.914Z,7.53
2017-10-09T21:55:27.474Z,6.17
2017-10-09T21:57:55.062Z,5.60
2017-10-09T22:00:23.055Z,4.73
2017-10-09T22:02:51.422Z,5.50
2017-10-09T22:05:20.371Z,5.60
2017-10-09T22:07:48.818Z,4.70
2017-10-09T22:10:17.745Z,3.93
2017-10-09T22:12:45.353Z,4.60
2017-10-09T22:15:14.291Z,4.90
2017-10-09T22:17:41.863Z,5.67
2017-10-09T22:20:10.993Z,5.87
2017-10-09T22:22:39.350Z,6.10
2017-10-09T22:25:08.069Z,6.50
2017-10-09T22:27:35.621Z,6.70
2017-10-09T22:30:03.626Z,6.70
2017-10-09T22:32:32.306Z,6.63
2017-10-09T22:34:59.866Z,6.10
2017-10-09T22:37:27.464Z,6.20
2017-10-09T22:39:55.018Z,6.30
2017-10-09T22:42:23.993Z,5.97
2017-10-09T22:44:53.045Z,5.07
2017-10-09T22:47:21.827Z,5.80
2017-10-09T22:49:49.783Z,5.20
2017-10-09T22:52:18.750Z,5.10
2017-10-09T22:54:46.307Z,4.73
2017-10-09T22:57:14.618Z,4.17
2017-10-09T22:59:42.258Z,4.60
2017-10-09T23:02:09.832Z,4.67
2017-10-09T23:04:39.730Z,4.87
2017-10-09T23:07:07.316Z,4.17
2017-10-09T23:09:35.768Z,4.37
2017-10-09T23:12:04.042Z,3.90
2017-10-09T23:14:31.610Z,4.43
2017-10-09T23:17:00.372Z,4.20
2017-10-09T23:19:27.933Z,4.57
2017-10-09T23:21:56.292Z,3.90
2017-10-09T23:24:24.275Z,4.30
2017-10-09T23:26:52.683Z,3.63
2017-10-09T23:29:21.031Z,3.90
2017-10-09T23:31:48.613Z,3.73
2017-10-09T23:34:17.347Z,4.07
2017-10-09T23:36:45.297Z,3.60
2017-10-09T23:39:14.310Z,3.57
2017-10-09T23:41:41.894Z,3.73
2017-10-09T23:44:09.492Z,4.10
2017-10-09T23:46:37.421Z,4.30
2017-10-09T23:49:05.137Z,4.43
2017-10-09T23:51:32.744Z,3.97
2017-10-09T23:54:01.182Z,3.77
2017-10-09T23:56:28.779Z,4.20
2017-10-09T23:58:56.339Z,4.70
